Time,TemperatureF,DewpointF,PressureIn,WindDirection,WindDirectionDegrees,WindSpeedMPH,WindSpeedGustMPH,Humidity,HourlyPrecipIn,Conditions,Clouds,dailyrainin,SoftwareType,DateUTC
2013-08-23 00:14:00,81.4,64.0,29.90,SSE,160,3.0,6.0,56,0.00,,,0.00,weatherlink.com 1.10,2013-08-23 06:14:00,
2013-08-23 00:29:00,81.6,64.0,29.90,SSE,161,2.0,6.0,55,0.00,,,0.00,weatherlink.com 1.10,2013-08-23 06:29:00,
2013-08-23 00:44:00,81.7,64.0,29.89,SSE,163,1.0,6.0,55,0.00,,,0.00,weatherlink.com 1.10,2013-08-23 06:44:00,
2013-08-23 00:59:00,81.4,64.0,29.90,SSE,165,2.0,6.0,56,0.00,,,0.00,weatherlink.com 1.10,2013-08-23 06:59:00,
2013-08-23 01:14:00,81.1,64.0,29.90,SSE,167,2.0,4.0,56,0.00,,,0.00,weatherlink.com 1.10,2013-08-23 07:14:00,
2013-08-23 01:29:00,80.8,64.0,29.90,SSE,168,3.0,4.0,57,0.00,,,0.00,weatherlink.com 1.10,2013-08-23 07:29:00,
2013-08-23 01:44:00,80.3,64.0,29.89,SSE,167,0.0,4.0,57,0.00,,,0.00,weatherlink.com 1.10,2013-08-23 07:44:00,
2013-08-23 01:59:00,80.5,64.0,29.89,SSE,168,0.0,4.0,57,0.00,,,0.00,weatherlink.com 1.10,2013-08-23 07:59:00,
2013-08-23 02:14:00,81.0,63.0,29.89,SSE,168,0.0,5.0,55,0.00,,,0.00,weatherlink.com 1.10,2013-08-23 08:14:00,
2013-08-23 02:29:00,80.7,63.0,29.89,SSE,168,2.0,4.0,56,0.00,,,0.00,weatherlink.com 1.10,2013-08-23 08:29:00,
2013-08-23 02:44:00,80.5,63.0,29.90,SSE,167,0.0,1.0,56,0.00,,,0.00,weatherlink.com 1.10,2013-08-23 08:44:00,
2013-08-23 02:59:00,80.3,63.0,29.90,SSE,168,0.0,1.0,56,0.00,,,0.00,weatherlink.com 1.10,2013-08-23 08:59:00,
2013-08-23 03:14:00,79.9,63.0,29.90,SSE,168,0.0,1.0,56,0.00,,,0.00,weatherlink.com 1.10,2013-08-23 09:14:00,
2013-08-23 03:29:00,79.5,63.0,29.89,SSE,168,0.0,2.0,57,0.00,,,0.00,weatherlink.com 1.10,2013-08-23 09:29:00,
2013-08-23 03:44:00,78.9,63.0,29.90,SSE,168,0.0,2.0,58,0.00,,,0.00,weatherlink.com 1.10,2013-08-23 09:44:00,
2013-08-23 03:59:00,78.4,63.0,29.90,SSE,168,0.0,0.0,59,0.00,,,0.00,weatherlink.com 1.10,2013-08-23 09:59:00,
2013-08-23 04:14:00,76.8,63.0,29.90,SSE,167,0.0,0.0,63,0.00,,,0.00,weatherlink.com 1.10,2013-08-23 10:14:00,
2013-08-23 04:29:00,75.7,63.0,29.89,SSE,168,0.0,3.0,65,0.00,,,0.00,weatherlink.com 1.10,2013-08-23 10:29:00,
2013-08-23 04:45:00,76.2,63.0,29.90,SSE,168,0.0,1.0,64,0.00,,,0.00,weatherlink.com 1.10,2013-08-23 10:45:00,
2013-08-23 05:00:00,75.3,64.0,29.90,SSE,168,0.0,4.0,67,0.00,,,0.00,weatherlink.com 1.10,2013-08-23 11:00:00,
2013-08-23 05:15:00,74.3,63.0,29.90,SSE,168,0.0,0.0,69,0.00,,,0.00,weatherlink.com 1.10,2013-08-23 11:15:00,
2013-08-23 05:30:00,74.9,64.0,29.90,SSE,168,0.0,3.0,68,0.00,,,0.00,weatherlink.com 1.10,2013-08-23 11:30:00,
2013-08-23 05:45:00,74.9,63.0,29.90,SSE,168,0.0,3.0,67,0.00,,,0.00,weatherlink.com 1.10,2013-08-23 11:45:00,
2013-08-23 06:00:00,74.9,63.0,29.90,SSE,168,2.0,5.0,67,0.00,,,0.00,weatherlink.com 1.10,2013-08-23 12:00:00,
2013-08-23 06:15:00,75.0,63.0,29.90,SSE,168,0.0,4.0,67,0.00,,,0.00,weatherlink.com 1.10,2013-08-23 12:15:00,
2013-08-23 06:30:00,74.7,63.0,29.91,SSE,168,1.0,4.0,68,0.00,,,0.00,weatherlink.com 1.10,2013-08-23 12:30:00,
2013-08-23 06:45:00,74.9,64.0,29.92,South,169,2.0,3.0,68,0.00,,,0.00,weatherlink.com 1.10,2013-08-23 12:45:00,
2013-08-23 07:00:00,75.5,64.0,29.92,SSE,168,0.0,3.0,67,0.00,,,0.00,weatherlink.com 1.10,2013-08-23 13:00:00,
2013-08-23 07:15:00,76.2,64.0,29.93,SSE,168,0.0,0.0,67,0.00,,,0.00,weatherlink.com 1.10,2013-08-23 13:15:00,
2013-08-23 07:30:00,77.4,64.0,29.93,SSE,168,0.0,0.0,64,0.00,,,0.00,weatherlink.com 1.10,2013-08-23 13:30:00,
2013-08-23 07:45:00,78.4,65.0,29.93,SSE,168,0.0,3.0,63,0.00,,,0.00,weatherlink.com 1.10,2013-08-23 13:45:00,
2013-08-23 08:00:00,79.1,65.0,29.94,SSE,168,0.0,0.0,63,0.00,,,0.00,weatherlink.com 1.10,2013-08-23 14:00:00,
2013-08-23 08:15:00,80.2,65.0,29.94,SSE,168,0.0,2.0,60,0.00,,,0.00,weatherlink.com 1.10,2013-08-23 14:15:00,
2013-08-23 08:30:00,82.8,65.0,29.94,SSE,168,0.0,1.0,56,0.00,,,0.00,weatherlink.com 1.10,2013-08-23 14:30:00,
2013-08-23 08:45:00,84.0,66.0,29.94,SSE,168,0.0,1.0,54,0.00,,,0.00,weatherlink.com 1.10,2013-08-23 14:45:00,
2013-08-23 09:00:00,85.2,66.0,29.94,SSE,168,0.0,0.0,52,0.00,,,0.00,weatherlink.com 1.10,2013-08-23 15:00:00,
2013-08-23 09:15:00,86.9,65.0,29.94,SSE,168,0.0,3.0,48,0.00,,,0.00,weatherlink.com 1.10,2013-08-23 15:15:00,
2013-08-23 09:30:00,88.0,65.0,29.94,SSE,168,0.0,5.0,46,0.00,,,0.00,weatherlink.com 1.10,2013-08-23 15:30:00,
2013-08-23 09:45:00,88.9,66.0,29.94,SSE,168,1.0,5.0,46,0.00,,,0.00,weatherlink.com 1.10,2013-08-23 15:45:00,
2013-08-23 10:00:00,90.1,65.0,29.94,SSE,168,0.0,3.0,43,0.00,,,0.00,weatherlink.com 1.10,2013-08-23 16:00:00,
2013-08-23 10:15:00,91.4,65.0,29.94,SSE,166,0.0,6.0,41,0.00,,,0.00,weatherlink.com 1.10,2013-08-23 16:15:00,
2013-08-23 10:30:00,92.2,65.0,29.94,South,172,3.0,4.0,40,0.00,,,0.00,weatherlink.com 1.10,2013-08-23 16:30:00,
2013-08-23 10:45:00,92.9,64.0,29.94,South,190,3.0,7.0,38,0.00,,,0.00,weatherlink.com 1.10,2013-08-23 16:45:00,
2013-08-23 11:00:00,93.3,63.0,29.93,SSE,160,4.0,8.0,37,0.00,,,0.00,weatherlink.com 1.10,2013-08-23 17:00:00,
2013-08-23 11:15:00,93.7,64.0,29.93,South,181,0.0,7.0,37,0.00,,,0.00,weatherlink.com 1.10,2013-08-23 17:15:00,
2013-08-23 11:30:00,94.3,63.0,29.92,SW,216,3.0,11.0,36,0.00,,,0.00,weatherlink.com 1.10,2013-08-23 17:30:00,
2013-08-23 11:45:00,95.1,63.0,29.92,South,182,6.0,8.0,35,0.00,,,0.00,weatherlink.com 1.10,2013-08-23 17:45:00,
2013-08-23 12:00:00,95.3,64.0,29.91,SE,136,1.0,10.0,36,0.00,,,0.00,weatherlink.com 1.10,2013-08-23 18:00:00,
2013-08-23 12:16:00,94.2,62.0,29.91,SSE,153,0.0,10.0,34,0.00,,,0.00,weatherlink.com 1.10,2013-08-23 18:16:00,
2013-08-23 12:31:00,93.9,63.0,29.91,SSE,150,4.0,11.0,36,0.00,,,0.00,weatherlink.com 1.10,2013-08-23 18:31:00,
2013-08-23 12:46:00,95.5,63.0,29.90,SE,139,5.0,11.0,34,0.00,,,0.00,weatherlink.com 1.10,2013-08-23 18:46:00,
2013-08-23 13:01:00,95.0,63.0,29.90,East,99,8.0,15.0,35,0.00,,,0.00,weatherlink.com 1.10,2013-08-23 19:01:00,
2013-08-23 13:16:00,95.8,63.0,29.89,SE,131,3.0,9.0,34,0.00,,,0.00,weatherlink.com 1.10,2013-08-23 19:16:00,
2013-08-23 13:31:00,96.4,63.0,29.89,ESE,116,3.0,11.0,33,0.00,,,0.00,weatherlink.com 1.10,2013-08-23 19:31:00,
2013-08-23 13:46:00,96.5,63.0,29.88,SSE,163,5.0,13.0,33,0.00,,,0.00,weatherlink.com 1.10,2013-08-23 19:46:00,
2013-08-23 14:01:00,96.5,63.0,29.87,South,174,5.0,13.0,33,0.00,,,0.00,weatherlink.com 1.10,2013-08-23 20:01:00,
2013-08-23 14:16:00,96.6,63.0,29.86,SE,135,9.0,10.0,33,0.00,,,0.00,weatherlink.com 1.10,2013-08-23 20:16:00,
2013-08-23 14:31:00,96.7,63.0,29.85,SSE,156,1.0,14.0,33,0.00,,,0.00,weatherlink.com 1.10,2013-08-23 20:31:00,
2013-08-23 14:46:00,97.3,62.0,29.85,SSE,157,0.0,10.0,31,0.00,,,0.00,weatherlink.com 1.10,2013-08-23 20:46:00,
2013-08-23 15:01:00,96.3,63.0,29.84,SE,141,8.0,12.0,33,0.00,,,0.00,weatherlink.com 1.10,2013-08-23 21:01:00,
2013-08-23 15:16:00,97.0,63.0,29.84,ESE,121,1.0,9.0,32,0.00,,,0.00,weatherlink.com 1.10,2013-08-23 21:16:00,
2013-08-23 15:31:00,97.9,63.0,29.83,SSE,148,1.0,6.0,32,0.00,,,0.00,weatherlink.com 1.10,2013-08-23 21:31:00,
2013-08-23 15:46:00,97.8,62.0,29.83,SE,143,1.0,8.0,31,0.00,,,0.00,weatherlink.com 1.10,2013-08-23 21:46:00,
2013-08-23 16:01:00,98.0,62.0,29.82,SE,143,0.0,9.0,30,0.00,,,0.00,weatherlink.com 1.10,2013-08-23 22:01:00,
2013-08-23 16:16:00,98.3,61.0,29.82,SE,135,4.0,9.0,29,0.00,,,0.00,weatherlink.com 1.10,2013-08-23 22:16:00,
2013-08-23 16:31:00,97.4,61.0,29.81,ESE,114,0.0,8.0,30,0.00,,,0.00,weatherlink.com 1.10,2013-08-23 22:31:00,
2013-08-23 16:46:00,97.8,62.0,29.81,SE,134,0.0,10.0,30,0.00,,,0.00,weatherlink.com 1.10,2013-08-23 22:46:00,
2013-08-23 17:01:00,97.0,61.0,29.81,South,172,6.0,14.0,30,0.00,,,0.00,weatherlink.com 1.10,2013-08-23 23:01:00,
2013-08-23 17:16:00,96.7,61.0,29.81,SE,136,0.0,8.0,31,0.00,,,0.00,weatherlink.com 1.10,2013-08-23 23:16:00,
2013-08-23 17:31:00,96.6,60.0,29.81,SE,142,3.0,11.0,30,0.00,,,0.00,weatherlink.com 1.10,2013-08-23 23:31:00,
2013-08-23 17:46:00,96.5,61.0,29.81,SE,138,3.0,10.0,31,0.00,,,0.00,weatherlink.com 1.10,2013-08-23 23:46:00,
2013-08-23 18:01:00,96.0,61.0,29.81,SE,139,7.0,11.0,31,0.00,,,0.00,weatherlink.com 1.10,2013-08-24 00:01:00,
2013-08-23 18:16:00,94.2,63.0,29.81,SSE,148,9.0,13.0,35,0.00,,,0.00,weatherlink.com 1.10,2013-08-24 00:16:00,
2013-08-23 18:31:00,93.4,63.0,29.81,SE,146,4.0,14.0,37,0.00,,,0.00,weatherlink.com 1.10,2013-08-24 00:31:00,
2013-08-23 18:46:00,92.4,63.0,29.82,SE,133,8.0,15.0,37,0.00,,,0.00,weatherlink.com 1.10,2013-08-24 00:46:00,
2013-08-23 19:01:00,91.6,64.0,29.83,SE,141,4.0,17.0,40,0.00,,,0.00,weatherlink.com 1.10,2013-08-24 01:01:00,
2013-08-23 19:31:00,89.5,65.0,29.84,SE,139,4.0,16.0,44,0.00,,,0.00,weatherlink.com 1.10,2013-08-24 01:31:00,
2013-08-23 19:46:00,88.6,65.0,29.84,SE,137,5.0,13.0,46,0.00,,,0.00,weatherlink.com 1.10,2013-08-24 01:46:00,
2013-08-23 20:01:00,88.1,65.0,29.85,SSE,152,2.0,12.0,47,0.00,,,0.00,weatherlink.com 1.10,2013-08-24 02:01:00,
2013-08-23 20:16:00,87.6,65.0,29.85,SE,142,10.0,12.0,47,0.00,,,0.00,weatherlink.com 1.10,2013-08-24 02:16:00,
2013-08-23 20:31:00,87.0,65.0,29.86,SE,139,4.0,12.0,48,0.00,,,0.00,weatherlink.com 1.10,2013-08-24 02:31:00,
2013-08-23 20:46:00,86.4,66.0,29.87,SE,140,4.0,10.0,50,0.00,,,0.00,weatherlink.com 1.10,2013-08-24 02:46:00,
2013-08-23 21:01:00,85.7,65.0,29.88,SSE,149,4.0,9.0,51,0.00,,,0.00,weatherlink.com 1.10,2013-08-24 03:01:00,
2013-08-23 21:16:00,85.4,65.0,29.88,SSE,152,4.0,11.0,51,0.00,,,0.00,weatherlink.com 1.10,2013-08-24 03:16:00,
2013-08-23 21:31:00,85.0,65.0,29.88,SSE,148,1.0,9.0,52,0.00,,,0.00,weatherlink.com 1.10,2013-08-24 03:31:00,
2013-08-23 21:46:00,84.5,65.0,29.88,SSE,147,4.0,6.0,53,0.00,,,0.00,weatherlink.com 1.10,2013-08-24 03:46:00,
2013-08-23 22:01:00,83.9,65.0,29.89,SSE,147,1.0,7.0,54,0.00,,,0.00,weatherlink.com 1.10,2013-08-24 04:01:00,
2013-08-23 22:16:00,83.2,65.0,29.89,SE,146,0.0,6.0,55,0.00,,,0.00,weatherlink.com 1.10,2013-08-24 04:16:00,
2013-08-23 22:31:00,82.7,65.0,29.90,SE,145,2.0,5.0,56,0.00,,,0.00,weatherlink.com 1.10,2013-08-24 04:31:00,
2013-08-23 22:46:00,82.1,65.0,29.90,SE,137,0.0,6.0,57,0.00,,,0.00,weatherlink.com 1.10,2013-08-24 04:46:00,
2013-08-23 23:01:00,81.8,65.0,29.90,SE,137,0.0,6.0,58,0.00,,,0.00,weatherlink.com 1.10,2013-08-24 05:01:00,
2013-08-23 23:16:00,81.2,66.0,29.91,SE,137,1.0,5.0,60,0.00,,,0.00,weatherlink.com 1.10,2013-08-24 05:16:00,
2013-08-23 23:31:00,81.0,66.0,29.90,SE,135,0.0,7.0,60,0.00,,,0.00,weatherlink.com 1.10,2013-08-24 05:31:00,
2013-08-23 23:46:00,80.9,66.0,29.91,SE,129,2.0,9.0,61,0.00,,,0.00,weatherlink.com 1.10,2013-08-24 05:46:00,